sensor_id;sensor_type;location;lat;lon;timestamp;P1;durP1;ratioP1;P2;durP2;ratioP2
32780;SDS011;19136;47.032;15.502;2023-03-12T00:00:28;5.03;;;2.20;;
32780;SDS011;19136;47.032;15.502;2023-03-12T00:02:54;4.28;;;2.35;;
32780;SDS011;19136;47.032;15.502;2023-03-12T00:05:20;10.40;;;3.00;;
32780;SDS011;19136;47.032;15.502;2023-03-12T00:07:47;10.15;;;5.07;;
32780;SDS011;19136;47.032;15.502;2023-03-12T00:10:14;5.78;;;2.17;;
32780;SDS011;19136;47.032;15.502;2023-03-12T00:12:41;5.15;;;2.15;;
32780;SDS011;19136;47.032;15.502;2023-03-12T00:15:07;6.32;;;2.30;;
32780;SDS011;19136;47.032;15.502;2023-03-12T00:17:33;4.45;;;1.92;;
32780;SDS011;19136;47.032;15.502;2023-03-12T00:19:59;3.90;;;2.00;;
32780;SDS011;19136;47.032;15.502;2023-03-12T00:22:25;8.35;;;2.30;;
32780;SDS011;19136;47.032;15.502;2023-03-12T00:24:52;4.30;;;2.20;;
32780;SDS011;19136;47.032;15.502;2023-03-12T00:27:19;3.53;;;2.03;;
32780;SDS011;19136;47.032;15.502;2023-03-12T00:29:45;2.95;;;1.70;;
32780;SDS011;19136;47.032;15.502;2023-03-12T00:32:11;4.35;;;2.53;;
32780;SDS011;19136;47.032;15.502;2023-03-12T00:34:36;4.50;;;2.17;;
32780;SDS011;19136;47.032;15.502;2023-03-12T00:37:02;5.30;;;2.40;;
32780;SDS011;19136;47.032;15.502;2023-03-12T00:39:28;6.05;;;2.20;;
32780;SDS011;19136;47.032;15.502;2023-03-12T00:41:53;4.40;;;2.00;;
32780;SDS011;19136;47.032;15.502;2023-03-12T00:44:19;3.88;;;2.17;;
32780;SDS011;19136;47.032;15.502;2023-03-12T00:46:45;5.13;;;2.25;;
32780;SDS011;19136;47.032;15.502;2023-03-12T00:49:10;5.07;;;2.50;;
32780;SDS011;19136;47.032;15.502;2023-03-12T00:51:37;5.22;;;2.22;;
32780;SDS011;19136;47.032;15.502;2023-03-12T00:54:02;6.75;;;2.10;;
32780;SDS011;19136;47.032;15.502;2023-03-12T00:56:29;6.70;;;1.95;;
32780;SDS011;19136;47.032;15.502;2023-03-12T00:58:56;6.82;;;2.40;;
32780;SDS011;19136;47.032;15.502;2023-03-12T01:01:22;4.60;;;2.00;;
32780;SDS011;19136;47.032;15.502;2023-03-12T01:03:48;7.85;;;2.30;;
32780;SDS011;19136;47.032;15.502;2023-03-12T01:06:16;7.03;;;2.58;;
32780;SDS011;19136;47.032;15.502;2023-03-12T01:08:42;6.03;;;2.40;;
32780;SDS011;19136;47.032;15.502;2023-03-12T01:11:11;4.38;;;2.25;;
32780;SDS011;19136;47.032;15.502;2023-03-12T01:13:40;3.63;;;1.92;;
32780;SDS011;19136;47.032;15.502;2023-03-12T01:16:06;4.65;;;2.22;;
32780;SDS011;19136;47.032;15.502;2023-03-12T01:18:32;7.00;;;2.08;;
32780;SDS011;19136;47.032;15.502;2023-03-12T01:20:58;6.15;;;2.20;;
32780;SDS011;19136;47.032;15.502;2023-03-12T01:23:24;6.97;;;2.22;;
32780;SDS011;19136;47.032;15.502;2023-03-12T01:25:50;4.78;;;2.03;;
32780;SDS011;19136;47.032;15.502;2023-03-12T01:28:20;4.32;;;2.20;;
32780;SDS011;19136;47.032;15.502;2023-03-12T01:30:49;8.07;;;2.15;;
32780;SDS011;19136;47.032;15.502;2023-03-12T01:33:15;4.32;;;1.98;;
32780;SDS011;19136;47.032;15.502;2023-03-12T01:35:41;5.78;;;2.10;;
32780;SDS011;19136;47.032;15.502;2023-03-12T01:38:08;5.55;;;2.10;;
32780;SDS011;19136;47.032;15.502;2023-03-12T01:40:38;3.63;;;1.85;;
32780;SDS011;19136;47.032;15.502;2023-03-12T01:43:39;5.20;;;2.58;;
32780;SDS011;19136;47.032;15.502;2023-03-12T01:46:05;3.95;;;2.08;;
32780;SDS011;19136;47.032;15.502;2023-03-12T01:48:50;4.95;;;2.15;;
32780;SDS011;19136;47.032;15.502;2023-03-12T01:51:49;6.57;;;2.03;;
32780;SDS011;19136;47.032;15.502;2023-03-12T01:54:20;4.65;;;1.98;;
32780;SDS011;19136;47.032;15.502;2023-03-12T01:56:48;5.20;;;2.10;;
32780;SDS011;19136;47.032;15.502;2023-03-12T01:59:37;4.85;;;2.53;;
32780;SDS011;19136;47.032;15.502;2023-03-12T02:02:14;4.85;;;2.22;;
32780;SDS011;19136;47.032;15.502;2023-03-12T02:04:41;4.70;;;2.47;;
32780;SDS011;19136;47.032;15.502;2023-03-12T02:07:09;4.80;;;1.98;;
32780;SDS011;19136;47.032;15.502;2023-03-12T02:09:37;4.15;;;2.28;;
32780;SDS011;19136;47.032;15.502;2023-03-12T02:12:05;5.75;;;2.45;;
32780;SDS011;19136;47.032;15.502;2023-03-12T02:14:32;6.75;;;2.13;;
32780;SDS011;19136;47.032;15.502;2023-03-12T02:16:58;4.88;;;2.47;;
32780;SDS011;19136;47.032;15.502;2023-03-12T02:22:23;5.70;;;2.28;;
32780;SDS011;19136;47.032;15.502;2023-03-12T02:27:20;6.03;;;2.75;;
32780;SDS011;19136;47.032;15.502;2023-03-12T02:29:46;4.63;;;2.40;;
32780;SDS011;19136;47.032;15.502;2023-03-12T02:32:20;5.43;;;2.40;;
32780;SDS011;19136;47.032;15.502;2023-03-12T02:34:49;6.25;;;2.28;;
32780;SDS011;19136;47.032;15.502;2023-03-12T02:37:15;5.30;;;2.78;;
32780;SDS011;19136;47.032;15.502;2023-03-12T02:39:42;5.80;;;2.30;;
32780;SDS011;19136;47.032;15.502;2023-03-12T02:42:11;6.22;;;2.42;;
32780;SDS011;19136;47.032;15.502;2023-03-12T02:44:37;6.85;;;3.08;;
32780;SDS011;19136;47.032;15.502;2023-03-12T02:47:03;5.35;;;2.28;;
32780;SDS011;19136;47.032;15.502;2023-03-12T02:49:31;5.05;;;2.25;;
32780;SDS011;19136;47.032;15.502;2023-03-12T02:51:58;4.28;;;2.17;;
32780;SDS011;19136;47.032;15.502;2023-03-12T02:54:24;4.65;;;2.47;;
32780;SDS011;19136;47.032;15.502;2023-03-12T02:56:50;4.97;;;2.88;;
32780;SDS011;19136;47.032;15.502;2023-03-12T02:59:17;14.93;;;3.10;;
32780;SDS011;19136;47.032;15.502;2023-03-12T03:01:45;8.35;;;2.75;;
32780;SDS011;19136;47.032;15.502;2023-03-12T03:04:12;5.82;;;2.65;;
32780;SDS011;19136;47.032;15.502;2023-03-12T03:06:38;5.70;;;3.30;;
32780;SDS011;19136;47.032;15.502;2023-03-12T03:09:05;6.93;;;2.90;;
32780;SDS011;19136;47.032;15.502;2023-03-12T03:11:31;5.75;;;2.80;;
32780;SDS011;19136;47.032;15.502;2023-03-12T03:13:59;12.10;;;3.28;;
32780;SDS011;19136;47.032;15.502;2023-03-12T03:16:25;5.53;;;2.53;;
32780;SDS011;19136;47.032;15.502;2023-03-12T03:18:52;5.68;;;2.92;;
32780;SDS011;19136;47.032;15.502;2023-03-12T03:21:18;5.65;;;2.40;;
32780;SDS011;19136;47.032;15.502;2023-03-12T03:23:44;4.80;;;2.72;;
32780;SDS011;19136;47.032;15.502;2023-03-12T03:26:11;4.20;;;2.50;;
32780;SDS011;19136;47.032;15.502;2023-03-12T03:28:37;5.90;;;2.60;;
32780;SDS011;19136;47.032;15.502;2023-03-12T03:31:03;6.13;;;2.78;;
32780;SDS011;19136;47.032;15.502;2023-03-12T03:33:34;4.60;;;2.20;;
32780;SDS011;19136;47.032;15.502;2023-03-12T03:36:02;9.00;;;2.75;;
32780;SDS011;19136;47.032;15.502;2023-03-12T03:38:31;4.28;;;2.38;;
32780;SDS011;19136;47.032;15.502;2023-03-12T03:40:57;5.28;;;2.60;;
32780;SDS011;19136;47.032;15.502;2023-03-12T03:43:24;11.00;;;3.00;;
32780;SDS011;19136;47.032;15.502;2023-03-12T03:45:57;6.05;;;2.33;;
32780;SDS011;19136;47.032;15.502;2023-03-12T03:48:23;6.15;;;2.67;;
32780;SDS011;19136;47.032;15.502;2023-03-12T03:50:49;7.07;;;2.67;;
32780;SDS011;19136;47.032;15.502;2023-03-12T03:53:15;4.90;;;2.40;;
32780;SDS011;19136;47.032;15.502;2023-03-12T03:55:41;7.82;;;2.80;;
32780;SDS011;19136;47.032;15.502;2023-03-12T03:58:08;5.13;;;2.70;;
32780;SDS011;19136;47.032;15.502;2023-03-12T04:00:33;6.13;;;2.42;;
32780;SDS011;19136;47.032;15.502;2023-03-12T04:02:59;7.05;;;2.60;;
32780;SDS011;19136;47.032;15.502;2023-03-12T04:05:25;6.28;;;2.75;;
32780;SDS011;19136;47.032;15.502;2023-03-12T04:07:52;5.00;;;2.58;;
32780;SDS011;19136;47.032;15.502;2023-03-12T04:10:21;5.63;;;2.70;;
32780;SDS011;19136;47.032;15.502;2023-03-12T04:12:48;4.28;;;2.15;;
32780;SDS011;19136;47.032;15.502;2023-03-12T04:15:14;7.63;;;2.72;;
32780;SDS011;19136;47.032;15.502;2023-03-12T04:17:41;5.25;;;2.05;;
32780;SDS011;19136;47.032;15.502;2023-03-12T04:20:07;9.20;;;2.50;;
32780;SDS011;19136;47.032;15.502;2023-03-12T04:22:36;9.75;;;3.40;;
32780;SDS011;19136;47.032;15.502;2023-03-12T04:25:03;4.88;;;2.33;;
32780;SDS011;19136;47.032;15.502;2023-03-12T04:27:31;7.88;;;3.00;;
32780;SDS011;19136;47.032;15.502;2023-03-12T04:29:57;6.03;;;2.70;;
32780;SDS011;19136;47.032;15.502;2023-03-12T04:32:23;6.22;;;2.80;;
32780;SDS011;19136;47.032;15.502;2023-03-12T04:34:50;7.82;;;3.10;;
32780;SDS011;19136;47.032;15.502;2023-03-12T04:37:16;7.68;;;2.72;;
32780;SDS011;19136;47.032;15.502;2023-03-12T04:39:43;5.70;;;3.08;;
32780;SDS011;19136;47.032;15.502;2023-03-12T04:42:10;6.57;;;3.78;;
32780;SDS011;19136;47.032;15.502;2023-03-12T04:44:36;8.68;;;3.38;;
32780;SDS011;19136;47.032;15.502;2023-03-12T04:47:02;9.57;;;3.33;;
32780;SDS011;19136;47.032;15.502;2023-03-12T04:49:29;8.80;;;3.72;;
32780;SDS011;19136;47.032;15.502;2023-03-12T04:51:55;9.40;;;3.75;;
32780;SDS011;19136;47.032;15.502;2023-03-12T04:54:21;9.10;;;4.20;;
32780;SDS011;19136;47.032;15.502;2023-03-12T04:56:48;8.73;;;4.25;;
32780;SDS011;19136;47.032;15.502;2023-03-12T04:59:14;10.10;;;4.00;;
32780;SDS011;19136;47.032;15.502;2023-03-12T05:01:41;8.32;;;4.15;;
32780;SDS011;19136;47.032;15.502;2023-03-12T05:04:14;8.40;;;3.30;;
32780;SDS011;19136;47.032;15.502;2023-03-12T05:06:40;7.63;;;3.50;;
32780;SDS011;19136;47.032;15.502;2023-03-12T05:09:05;7.25;;;3.58;;
32780;SDS011;19136;47.032;15.502;2023-03-12T05:11:31;7.85;;;3.53;;
32780;SDS011;19136;47.032;15.502;2023-03-12T05:13:57;10.00;;;2.80;;
32780;SDS011;19136;47.032;15.502;2023-03-12T05:16:23;6.03;;;2.97;;
32780;SDS011;19136;47.032;15.502;2023-03-12T05:18:49;5.38;;;2.92;;
32780;SDS011;19136;47.032;15.502;2023-03-12T05:21:16;8.38;;;3.08;;
32780;SDS011;19136;47.032;15.502;2023-03-12T05:23:43;7.22;;;3.03;;
32780;SDS011;19136;47.032;15.502;2023-03-12T05:26:26;10.50;;;2.80;;
32780;SDS011;19136;47.032;15.502;2023-03-12T05:29:02;7.25;;;3.05;;
32780;SDS011;19136;47.032;15.502;2023-03-12T05:31:28;6.82;;;3.15;;
32780;SDS011;19136;47.032;15.502;2023-03-12T05:33:58;7.93;;;3.35;;
32780;SDS011;19136;47.032;15.502;2023-03-12T05:36:24;13.02;;;3.67;;
32780;SDS011;19136;47.032;15.502;2023-03-12T05:38:50;6.80;;;3.42;;
32780;SDS011;19136;47.032;15.502;2023-03-12T05:41:22;10.00;;;4.13;;
32780;SDS011;19136;47.032;15.502;2023-03-12T05:43:56;11.00;;;3.80;;
32780;SDS011;19136;47.032;15.502;2023-03-12T05:46:23;8.43;;;3.63;;
32780;SDS011;19136;47.032;15.502;2023-03-12T05:48:50;8.52;;;3.78;;
32780;SDS011;19136;47.032;15.502;2023-03-12T05:51:16;9.02;;;3.92;;
32780;SDS011;19136;47.032;15.502;2023-03-12T05:53:42;10.93;;;3.72;;
32780;SDS011;19136;47.032;15.502;2023-03-12T05:56:11;12.27;;;4.32;;
32780;SDS011;19136;47.032;15.502;2023-03-12T05:58:38;7.97;;;3.55;;
32780;SDS011;19136;47.032;15.502;2023-03-12T06:01:14;14.07;;;3.42;;
32780;SDS011;19136;47.032;15.502;2023-03-12T06:03:45;5.75;;;3.28;;
32780;SDS011;19136;47.032;15.502;2023-03-12T06:06:11;9.40;;;3.22;;
32780;SDS011;19136;47.032;15.502;2023-03-12T06:08:38;9.93;;;4.20;;
32780;SDS011;19136;47.032;15.502;2023-03-12T06:11:04;9.73;;;3.92;;
32780;SDS011;19136;47.032;15.502;2023-03-12T06:13:30;8.00;;;3.55;;
32780;SDS011;19136;47.032;15.502;2023-03-12T06:18:53;9.32;;;4.10;;
32780;SDS011;19136;47.032;15.502;2023-03-12T06:21:21;8.73;;;4.32;;
32780;SDS011;19136;47.032;15.502;2023-03-12T06:23:49;10.57;;;3.70;;
32780;SDS011;19136;47.032;15.502;2023-03-12T06:26:23;6.57;;;3.33;;
32780;SDS011;19136;47.032;15.502;2023-03-12T06:28:49;12.38;;;7.40;;
32780;SDS011;19136;47.032;15.502;2023-03-12T06:31:15;9.70;;;6.18;;
32780;SDS011;19136;47.032;15.502;2023-03-12T06:33:41;11.60;;;6.15;;
32780;SDS011;19136;47.032;15.502;2023-03-12T06:36:07;8.13;;;4.25;;
32780;SDS011;19136;47.032;15.502;2023-03-12T06:38:34;8.00;;;3.92;;
32780;SDS011;19136;47.032;15.502;2023-03-12T06:41:01;8.23;;;3.13;;
32780;SDS011;19136;47.032;15.502;2023-03-12T06:43:29;6.70;;;2.95;;
32780;SDS011;19136;47.032;15.502;2023-03-12T06:45:58;7.18;;;3.08;;
32780;SDS011;19136;47.032;15.502;2023-03-12T06:48:25;7.82;;;3.03;;
32780;SDS011;19136;47.032;15.502;2023-03-12T06:50:52;7.85;;;2.92;;
32780;SDS011;19136;47.032;15.502;2023-03-12T06:53:18;6.38;;;3.10;;
32780;SDS011;19136;47.032;15.502;2023-03-12T06:55:44;7.57;;;3.15;;
32780;SDS011;19136;47.032;15.502;2023-03-12T06:58:11;4.47;;;2.50;;
32780;SDS011;19136;47.032;15.502;2023-03-12T07:00:37;6.30;;;3.00;;
32780;SDS011;19136;47.032;15.502;2023-03-12T07:03:03;5.97;;;2.78;;
32780;SDS011;19136;47.032;15.502;2023-03-12T07:05:28;4.53;;;2.50;;
32780;SDS011;19136;47.032;15.502;2023-03-12T07:07:55;5.45;;;2.97;;
32780;SDS011;19136;47.032;15.502;2023-03-12T07:10:20;4.28;;;2.25;;
32780;SDS011;19136;47.032;15.502;2023-03-12T07:12:46;4.85;;;2.30;;
32780;SDS011;19136;47.032;15.502;2023-03-12T07:15:12;6.22;;;2.80;;
32780;SDS011;19136;47.032;15.502;2023-03-12T07:17:38;5.90;;;2.67;;
32780;SDS011;19136;47.032;15.502;2023-03-12T07:20:03;7.00;;;2.50;;
32780;SDS011;19136;47.032;15.502;2023-03-12T07:22:30;5.30;;;2.20;;
32780;SDS011;19136;47.032;15.502;2023-03-12T07:24:55;12.07;;;3.13;;
32780;SDS011;19136;47.032;15.502;2023-03-12T07:27:21;7.28;;;3.00;;
32780;SDS011;19136;47.032;15.502;2023-03-12T07:29:47;3.15;;;2.03;;
32780;SDS011;19136;47.032;15.502;2023-03-12T07:32:12;11.27;;;2.50;;
32780;SDS011;19136;47.032;15.502;2023-03-12T07:34:38;6.97;;;2.20;;
32780;SDS011;19136;47.032;15.502;2023-03-12T07:37:04;5.07;;;3.00;;
32780;SDS011;19136;47.032;15.502;2023-03-12T07:39:29;5.47;;;2.60;;
32780;SDS011;19136;47.032;15.502;2023-03-12T07:41:55;6.15;;;2.50;;
32780;SDS011;19136;47.032;15.502;2023-03-12T07:44:21;4.32;;;2.58;;
32780;SDS011;19136;47.032;15.502;2023-03-12T07:46:47;6.88;;;2.72;;
32780;SDS011;19136;47.032;15.502;2023-03-12T07:49:12;6.78;;;2.95;;
32780;SDS011;19136;47.032;15.502;2023-03-12T07:51:38;4.40;;;2.47;;
32780;SDS011;19136;47.032;15.502;2023-03-12T07:54:03;4.68;;;2.40;;
32780;SDS011;19136;47.032;15.502;2023-03-12T07:56:29;6.35;;;2.58;;
32780;SDS011;19136;47.032;15.502;2023-03-12T07:58:55;6.20;;;2.38;;
32780;SDS011;19136;47.032;15.502;2023-03-12T08:01:21;4.47;;;2.35;;
32780;SDS011;19136;47.032;15.502;2023-03-12T08:03:47;7.03;;;2.75;;
32780;SDS011;19136;47.032;15.502;2023-03-12T08:06:13;5.25;;;2.22;;
32780;SDS011;19136;47.032;15.502;2023-03-12T08:08:38;4.57;;;2.60;;
32780;SDS011;19136;47.032;15.502;2023-03-12T08:11:06;4.93;;;2.85;;
32780;SDS011;19136;47.032;15.502;2023-03-12T08:13:33;4.43;;;2.65;;
32780;SDS011;19136;47.032;15.502;2023-03-12T08:15:59;3.95;;;2.30;;
32780;SDS011;19136;47.032;15.502;2023-03-12T08:18:25;5.20;;;2.63;;
32780;SDS011;19136;47.032;15.502;2023-03-12T08:20:54;4.07;;;2.50;;
32780;SDS011;19136;47.032;15.502;2023-03-12T08:23:20;6.30;;;2.47;;
32780;SDS011;19136;47.032;15.502;2023-03-12T08:25:47;4.60;;;2.83;;
32780;SDS011;19136;47.032;15.502;2023-03-12T08:28:13;5.72;;;2.45;;
32780;SDS011;19136;47.032;15.502;2023-03-12T08:30:44;8.60;;;3.03;;
32780;SDS011;19136;47.032;15.502;2023-03-12T08:33:11;7.05;;;2.20;;
32780;SDS011;19136;47.032;15.502;2023-03-12T08:35:36;7.20;;;2.40;;
32780;SDS011;19136;47.032;15.502;2023-03-12T08:38:02;5.57;;;2.55;;
32780;SDS011;19136;47.032;15.502;2023-03-12T08:40:28;4.10;;;2.65;;
32780;SDS011;19136;47.032;15.502;2023-03-12T08:42:53;6.45;;;2.92;;
32780;SDS011;19136;47.032;15.502;2023-03-12T08:45:21;5.03;;;2.38;;
32780;SDS011;19136;47.032;15.502;2023-03-12T08:47:47;5.93;;;2.60;;
32780;SDS011;19136;47.032;15.502;2023-03-12T08:50:13;6.03;;;2.58;;
32780;SDS011;19136;47.032;15.502;2023-03-12T08:52:40;4.82;;;2.60;;
32780;SDS011;19136;47.032;15.502;2023-03-12T08:55:06;3.25;;;2.05;;
32780;SDS011;19136;47.032;15.502;2023-03-12T08:57:32;5.22;;;2.50;;
32780;SDS011;19136;47.032;15.502;2023-03-12T08:59:58;4.53;;;2.35;;
32780;SDS011;19136;47.032;15.502;2023-03-12T09:02:24;5.22;;;2.50;;
32780;SDS011;19136;47.032;15.502;2023-03-12T09:04:49;5.85;;;2.42;;
32780;SDS011;19136;47.032;15.502;2023-03-12T09:07:15;4.60;;;2.53;;
32780;SDS011;19136;47.032;15.502;2023-03-12T09:09:44;7.15;;;3.10;;
32780;SDS011;19136;47.032;15.502;2023-03-12T09:12:10;5.10;;;2.53;;
32780;SDS011;19136;47.032;15.502;2023-03-12T09:14:36;6.35;;;2.88;;
32780;SDS011;19136;47.032;15.502;2023-03-12T09:17:01;5.68;;;2.38;;
32780;SDS011;19136;47.032;15.502;2023-03-12T09:19:27;4.57;;;2.50;;
32780;SDS011;19136;47.032;15.502;2023-03-12T09:21:53;5.75;;;2.92;;
32780;SDS011;19136;47.032;15.502;2023-03-12T09:24:19;7.10;;;2.65;;
32780;SDS011;19136;47.032;15.502;2023-03-12T09:26:46;5.68;;;2.70;;
32780;SDS011;19136;47.032;15.502;2023-03-12T09:29:11;3.50;;;2.33;;
32780;SDS011;19136;47.032;15.502;2023-03-12T09:31:37;8.43;;;2.72;;
32780;SDS011;19136;47.032;15.502;2023-03-12T09:34:03;4.97;;;3.00;;
32780;SDS011;19136;47.032;15.502;2023-03-12T09:36:29;5.28;;;2.78;;
32780;SDS011;19136;47.032;15.502;2023-03-12T09:38:55;5.03;;;2.40;;
32780;SDS011;19136;47.032;15.502;2023-03-12T09:41:22;3.97;;;2.55;;
32780;SDS011;19136;47.032;15.502;2023-03-12T09:46:49;5.00;;;2.67;;
32780;SDS011;19136;47.032;15.502;2023-03-12T09:49:18;4.53;;;2.33;;
32780;SDS011;19136;47.032;15.502;2023-03-12T09:51:48;6.75;;;2.85;;
32780;SDS011;19136;47.032;15.502;2023-03-12T09:54:22;3.85;;;2.40;;
32780;SDS011;19136;47.032;15.502;2023-03-12T09:56:52;6.00;;;2.65;;
32780;SDS011;19136;47.032;15.502;2023-03-12T09:59:19;6.07;;;2.45;;
32780;SDS011;19136;47.032;15.502;2023-03-12T10:01:49;4.78;;;2.40;;
32780;SDS011;19136;47.032;15.502;2023-03-12T10:07:10;5.88;;;2.58;;
32780;SDS011;19136;47.032;15.502;2023-03-12T10:09:56;4.97;;;2.50;;
32780;SDS011;19136;47.032;15.502;2023-03-12T10:15:42;4.00;;;2.58;;
32780;SDS011;19136;47.032;15.502;2023-03-12T10:26:34;4.35;;;2.63;;
32780;SDS011;19136;47.032;15.502;2023-03-12T10:29:09;6.40;;;2.35;;
32780;SDS011;19136;47.032;15.502;2023-03-12T10:31:53;5.35;;;2.42;;
32780;SDS011;19136;47.032;15.502;2023-03-12T10:37:14;4.03;;;2.20;;
32780;SDS011;19136;47.032;15.502;2023-03-12T10:39:50;6.80;;;2.63;;
32780;SDS011;19136;47.032;15.502;2023-03-12T10:42:21;4.40;;;2.53;;
32780;SDS011;19136;47.032;15.502;2023-03-12T10:44:53;8.43;;;3.95;;
32780;SDS011;19136;47.032;15.502;2023-03-12T10:47:35;6.57;;;2.85;;
32780;SDS011;19136;47.032;15.502;2023-03-12T10:50:19;4.95;;;2.92;;
32780;SDS011;19136;47.032;15.502;2023-03-12T10:52:48;5.78;;;2.88;;
32780;SDS011;19136;47.032;15.502;2023-03-12T10:55:28;6.03;;;2.60;;
32780;SDS011;19136;47.032;15.502;2023-03-12T10:57:55;5.50;;;2.58;;
32780;SDS011;19136;47.032;15.502;2023-03-12T11:00:27;7.15;;;2.72;;
32780;SDS011;19136;47.032;15.502;2023-03-12T11:02:58;7.40;;;2.50;;
32780;SDS011;19136;47.032;15.502;2023-03-12T11:11:01;4.63;;;2.60;;
32780;SDS011;19136;47.032;15.502;2023-03-12T11:13:32;4.25;;;2.67;;
32780;SDS011;19136;47.032;15.502;2023-03-12T11:19:04;6.70;;;3.17;;
32780;SDS011;19136;47.032;15.502;2023-03-12T11:21:30;7.45;;;2.60;;
32780;SDS011;19136;47.032;15.502;2023-03-12T11:24:09;5.70;;;2.95;;
32780;SDS011;19136;47.032;15.502;2023-03-12T11:26:38;5.78;;;2.83;;
32780;SDS011;19136;47.032;15.502;2023-03-12T11:29:28;6.35;;;3.13;;
32780;SDS011;19136;47.032;15.502;2023-03-12T11:32:02;4.70;;;2.72;;
32780;SDS011;19136;47.032;15.502;2023-03-12T11:34:47;4.72;;;2.90;;
32780;SDS011;19136;47.032;15.502;2023-03-12T11:47:35;4.85;;;2.28;;
32780;SDS011;19136;47.032;15.502;2023-03-12T11:56:01;4.75;;;2.88;;
32780;SDS011;19136;47.032;15.502;2023-03-12T12:01:20;4.65;;;2.67;;
32780;SDS011;19136;47.032;15.502;2023-03-12T12:04:19;4.22;;;2.80;;
32780;SDS011;19136;47.032;15.502;2023-03-12T12:10:30;6.72;;;2.78;;
32780;SDS011;19136;47.032;15.502;2023-03-12T12:13:17;4.65;;;2.55;;
32780;SDS011;19136;47.032;15.502;2023-03-12T12:27:21;3.47;;;2.13;;
32780;SDS011;19136;47.032;15.502;2023-03-12T12:32:26;4.10;;;2.10;;
32780;SDS011;19136;47.032;15.502;2023-03-12T12:35:18;4.78;;;2.20;;
32780;SDS011;19136;47.032;15.502;2023-03-12T12:38:06;6.13;;;2.20;;
32780;SDS011;19136;47.032;15.502;2023-03-12T12:40:50;5.40;;;2.63;;
32780;SDS011;19136;47.032;15.502;2023-03-12T12:46:12;5.15;;;2.67;;
32780;SDS011;19136;47.032;15.502;2023-03-12T12:48:43;4.38;;;2.25;;
32780;SDS011;19136;47.032;15.502;2023-03-12T12:51:13;4.30;;;2.30;;
32780;SDS011;19136;47.032;15.502;2023-03-12T12:59:00;5.72;;;2.58;;
32780;SDS011;19136;47.032;15.502;2023-03-12T13:01:50;5.47;;;2.58;;
32780;SDS011;19136;47.032;15.502;2023-03-12T13:04:25;7.03;;;2.65;;
32780;SDS011;19136;47.032;15.502;2023-03-12T13:09:20;5.03;;;2.65;;
32780;SDS011;19136;47.032;15.502;2023-03-12T13:11:48;4.45;;;2.13;;
32780;SDS011;19136;47.032;15.502;2023-03-12T13:14:20;4.68;;;2.33;;
32780;SDS011;19136;47.032;15.502;2023-03-12T13:16:47;7.30;;;2.40;;
32780;SDS011;19136;47.032;15.502;2023-03-12T13:24:30;4.45;;;2.63;;
32780;SDS011;19136;47.032;15.502;2023-03-12T13:29:55;7.78;;;2.45;;
32780;SDS011;19136;47.032;15.502;2023-03-12T13:35:06;8.57;;;2.75;;
32780;SDS011;19136;47.032;15.502;2023-03-12T13:45:29;5.72;;;2.60;;
32780;SDS011;19136;47.032;15.502;2023-03-12T13:47:57;4.65;;;2.72;;
32780;SDS011;19136;47.032;15.502;2023-03-12T13:50:24;6.68;;;2.50;;
32780;SDS011;19136;47.032;15.502;2023-03-12T13:53:02;7.68;;;3.03;;
32780;SDS011;19136;47.032;15.502;2023-03-12T13:55:30;7.40;;;1.92;;
32780;SDS011;19136;47.032;15.502;2023-03-12T13:58:08;6.38;;;2.17;;
32780;SDS011;19136;47.032;15.502;2023-03-12T14:00:54;4.67;;;2.20;;
32780;SDS011;19136;47.032;15.502;2023-03-12T14:03:26;5.45;;;2.22;;
32780;SDS011;19136;47.032;15.502;2023-03-12T14:19:13;4.07;;;2.20;;
32780;SDS011;19136;47.032;15.502;2023-03-12T14:21:42;5.30;;;2.38;;
32780;SDS011;19136;47.032;15.502;2023-03-12T14:24:14;4.53;;;2.60;;
32780;SDS011;19136;47.032;15.502;2023-03-12T14:26:46;5.25;;;2.30;;
32780;SDS011;19136;47.032;15.502;2023-03-12T14:31:48;5.47;;;2.45;;
32780;SDS011;19136;47.032;15.502;2023-03-12T14:34:15;5.35;;;2.47;;
32780;SDS011;19136;47.032;15.502;2023-03-12T14:39:34;3.63;;;2.08;;
32780;SDS011;19136;47.032;15.502;2023-03-12T14:44:30;5.40;;;2.15;;
32780;SDS011;19136;47.032;15.502;2023-03-12T14:46:58;5.20;;;2.50;;
32780;SDS011;19136;47.032;15.502;2023-03-12T14:49:37;5.30;;;3.10;;
32780;SDS011;19136;47.032;15.502;2023-03-12T14:52:09;5.55;;;2.72;;
32780;SDS011;19136;47.032;15.502;2023-03-12T14:54:36;3.42;;;2.30;;
32780;SDS011;19136;47.032;15.502;2023-03-12T14:57:04;5.03;;;2.40;;
32780;SDS011;19136;47.032;15.502;2023-03-12T14:59:31;4.22;;;2.35;;
32780;SDS011;19136;47.032;15.502;2023-03-12T15:02:13;4.40;;;1.95;;
32780;SDS011;19136;47.032;15.502;2023-03-12T15:04:42;6.25;;;2.15;;
32780;SDS011;19136;47.032;15.502;2023-03-12T15:07:09;4.10;;;2.15;;
32780;SDS011;19136;47.032;15.502;2023-03-12T15:09:39;3.25;;;2.10;;
32780;SDS011;19136;47.032;15.502;2023-03-12T15:12:16;5.93;;;2.25;;
32780;SDS011;19136;47.032;15.502;2023-03-12T15:14:43;4.32;;;1.98;;
32780;SDS011;19136;47.032;15.502;2023-03-12T15:17:14;4.70;;;2.25;;
32780;SDS011;19136;47.032;15.502;2023-03-12T15:19:42;3.92;;;2.40;;
32780;SDS011;19136;47.032;15.502;2023-03-12T15:22:10;4.55;;;2.40;;
32780;SDS011;19136;47.032;15.502;2023-03-12T15:24:39;5.03;;;2.65;;
32780;SDS011;19136;47.032;15.502;2023-03-12T15:29:49;12.00;;;2.20;;
32780;SDS011;19136;47.032;15.502;2023-03-12T15:32:16;5.00;;;2.50;;
32780;SDS011;19136;47.032;15.502;2023-03-12T15:34:45;4.15;;;2.30;;
32780;SDS011;19136;47.032;15.502;2023-03-12T15:37:25;3.60;;;2.10;;
32780;SDS011;19136;47.032;15.502;2023-03-12T15:39:59;5.07;;;2.58;;
32780;SDS011;19136;47.032;15.502;2023-03-12T15:42:28;5.97;;;2.05;;
32780;SDS011;19136;47.032;15.502;2023-03-12T15:45:13;9.18;;;2.50;;
32780;SDS011;19136;47.032;15.502;2023-03-12T15:47:44;3.55;;;2.20;;
32780;SDS011;19136;47.032;15.502;2023-03-12T15:50:29;4.00;;;2.30;;
32780;SDS011;19136;47.032;15.502;2023-03-12T15:52:57;4.95;;;2.63;;
32780;SDS011;19136;47.032;15.502;2023-03-12T15:55:28;5.03;;;2.55;;
32780;SDS011;19136;47.032;15.502;2023-03-12T15:57:56;4.68;;;2.08;;
32780;SDS011;19136;47.032;15.502;2023-03-12T16:00:27;3.65;;;2.47;;
32780;SDS011;19136;47.032;15.502;2023-03-12T16:03:03;6.05;;;2.75;;
32780;SDS011;19136;47.032;15.502;2023-03-12T16:08:12;8.80;;;3.70;;
32780;SDS011;19136;47.032;15.502;2023-03-12T16:10:41;4.97;;;3.10;;
32780;SDS011;19136;47.032;15.502;2023-03-12T16:13:08;4.30;;;2.40;;
32780;SDS011;19136;47.032;15.502;2023-03-12T16:15:36;6.45;;;2.85;;
32780;SDS011;19136;47.032;15.502;2023-03-12T16:18:03;6.03;;;2.50;;
32780;SDS011;19136;47.032;15.502;2023-03-12T16:20:29;8.40;;;3.35;;
32780;SDS011;19136;47.032;15.502;2023-03-12T16:22:57;6.82;;;3.03;;
32780;SDS011;19136;47.032;15.502;2023-03-12T16:25:23;5.75;;;2.92;;
32780;SDS011;19136;47.032;15.502;2023-03-12T16:27:50;6.45;;;3.40;;
32780;SDS011;19136;47.032;15.502;2023-03-12T16:30:22;3.65;;;2.35;;
32780;SDS011;19136;47.032;15.502;2023-03-12T16:32:49;8.25;;;3.08;;
32780;SDS011;19136;47.032;15.502;2023-03-12T16:35:16;4.93;;;2.90;;
32780;SDS011;19136;47.032;15.502;2023-03-12T16:37:43;6.63;;;3.10;;
32780;SDS011;19136;47.032;15.502;2023-03-12T16:40:10;9.57;;;2.70;;
32780;SDS011;19136;47.032;15.502;2023-03-12T16:42:38;5.43;;;2.50;;
32780;SDS011;19136;47.032;15.502;2023-03-12T16:45:11;5.78;;;2.35;;
32780;SDS011;19136;47.032;15.502;2023-03-12T16:47:38;6.70;;;2.60;;
32780;SDS011;19136;47.032;15.502;2023-03-12T16:50:12;7.88;;;2.58;;
32780;SDS011;19136;47.032;15.502;2023-03-12T16:52:47;6.45;;;3.00;;